createdAt,value
2018-04-01T00:00:28.980Z,88.65
2018-04-01T00:02:55.998Z,86.95
2018-04-01T00:05:23.024Z,86.65
2018-04-01T00:07:50.058Z,85.55
2018-04-01T00:10:17.165Z,84.69
2018-04-01T00:12:44.245Z,86.03
2018-04-01T00:15:11.506Z,86.50
2018-04-01T00:17:38.546Z,85.30
2018-04-01T00:20:05.595Z,84.31
2018-04-01T00:22:32.642Z,82.95
2018-04-01T00:24:59.659Z,84.21
2018-04-01T00:27:26.763Z,84.50
2018-04-01T00:29:53.981Z,85.06
2018-04-01T00:32:21.936Z,84.12
2018-04-01T00:34:48.998Z,85.52
2018-04-01T00:37:16.030Z,85.97
2018-04-01T00:39:43.102Z,86.80
2018-04-01T00:42:10.187Z,85.66
2018-04-01T00:44:37.397Z,85.61
2018-04-01T00:47:04.439Z,85.64
2018-04-01T00:49:31.497Z,86.22
2018-04-01T00:51:58.479Z,86.44
2018-04-01T00:54:25.547Z,86.89
2018-04-01T00:56:52.601Z,86.82
2018-04-01T00:59:19.626Z,86.27
2018-04-01T01:01:46.667Z,85.61
2018-04-01T01:04:13.776Z,82.56
2018-04-01T01:06:40.811Z,82.98
2018-04-01T01:09:07.842Z,82.01
2018-04-01T01:11:34.873Z,82.08
2018-04-01T01:14:01.878Z,83.05
2018-04-01T01:16:28.903Z,82.72
2018-04-01T01:18:55.938Z,81.18
2018-04-01T01:21:22.971Z,81.14
2018-04-01T01:23:50.060Z,80.92
2018-04-01T01:26:17.073Z,82.11
2018-04-01T01:28:44.089Z,82.86
2018-04-01T01:31:11.179Z,83.01
2018-04-01T01:33:38.196Z,82.71
2018-04-01T01:36:05.259Z,82.91
2018-04-01T01:38:32.294Z,83.48
2018-04-01T01:40:59.449Z,82.62
2018-04-01T01:43:26.414Z,82.70
2018-04-01T01:45:53.447Z,83.54
2018-04-01T01:48:20.475Z,82.86
2018-04-01T01:50:47.484Z,82.60
2018-04-01T01:53:14.526Z,83.10
2018-04-01T01:55:41.583Z,83.37
2018-04-01T01:58:08.607Z,82.98
2018-04-01T02:00:35.630Z,83.08
2018-04-01T02:03:02.715Z,83.45
2018-04-01T02:05:29.817Z,82.74
2018-04-01T02:07:56.842Z,83.60
2018-04-01T02:10:23.932Z,83.63
2018-04-01T02:12:51.001Z,82.89
2018-04-01T02:15:18.072Z,81.96
2018-04-01T02:17:45.110Z,82.56
2018-04-01T02:20:12.129Z,82.12
2018-04-01T02:22:39.166Z,82.52
2018-04-01T02:25:06.175Z,83.43
2018-04-01T02:27:33.205Z,83.80
2018-04-01T02:30:00.456Z,83.22
2018-04-01T02:32:28.336Z,83.76
2018-04-01T02:34:55.799Z,83.54
2018-04-01T02:37:22.856Z,83.35
2018-04-01T02:39:49.905Z,83.68
2018-04-01T02:42:16.944Z,83.74
2018-04-01T02:44:43.969Z,83.13
2018-04-01T02:47:10.999Z,83.21
2018-04-01T02:49:38.043Z,82.87
2018-04-01T02:52:05.063Z,83.47
2018-04-01T02:54:32.102Z,83.50
2018-04-01T02:56:59.123Z,83.17
2018-04-01T02:59:26.146Z,82.14
2018-04-01T03:01:53.174Z,80.31
2018-04-01T03:04:20.208Z,80.66
2018-04-01T03:06:47.287Z,80.60
2018-04-01T03:09:14.320Z,80.31
2018-04-01T03:11:41.338Z,81.10
2018-04-01T03:14:08.384Z,81.58
2018-04-01T03:16:35.409Z,80.97
2018-04-01T03:19:02.454Z,80.40
2018-04-01T03:21:29.446Z,80.01
2018-04-01T03:23:56.493Z,79.64
2018-04-01T03:26:23.512Z,80.55
2018-04-01T03:28:50.530Z,79.87
2018-04-01T03:31:17.548Z,80.39
2018-04-01T03:33:44.590Z,80.63
2018-04-01T03:36:11.617Z,81.48
2018-04-01T03:38:38.634Z,81.73
2018-04-01T03:41:05.663Z,81.43
2018-04-01T03:43:32.720Z,81.56
2018-04-01T03:45:59.759Z,81.62
2018-04-01T03:48:26.775Z,81.64
2018-04-01T03:50:53.803Z,81.86
2018-04-01T03:53:20.813Z,81.41
2018-04-01T03:55:47.808Z,81.77
2018-04-01T03:58:14.848Z,81.82
2018-04-01T04:00:41.861Z,81.74
2018-04-01T04:03:08.877Z,81.89
2018-04-01T04:05:35.925Z,82.34
2018-04-01T04:08:02.987Z,81.96
2018-04-01T04:10:30.012Z,82.03
2018-04-01T04:12:57.028Z,81.88
2018-04-01T04:15:24.066Z,81.82
2018-04-01T04:17:51.090Z,81.59
2018-04-01T04:20:18.113Z,81.57
2018-04-01T04:22:45.147Z,81.53
2018-04-01T04:25:12.160Z,82.11
2018-04-01T04:27:39.176Z,81.89
2018-04-01T04:30:06.214Z,81.96
2018-04-01T04:32:33.268Z,81.92
2018-04-01T04:35:00.348Z,81.43
2018-04-01T04:37:27.418Z,81.06
2018-04-01T04:39:54.443Z,80.69
2018-04-01T04:42:23.218Z,81.18
2018-04-01T04:44:50.206Z,80.76
2018-04-01T04:47:17.240Z,80.76
2018-04-01T04:49:44.202Z,80.46
2018-04-01T04:52:11.158Z,80.08
2018-04-01T04:54:38.170Z,79.83
2018-04-01T04:57:05.213Z,80.43
2018-04-01T04:59:32.237Z,79.78
2018-04-01T05:01:59.281Z,80.41
2018-04-01T05:04:27.142Z,80.23
2018-04-01T05:06:54.110Z,80.61
2018-04-01T05:09:22.171Z,81.17
2018-04-01T05:11:49.235Z,80.96
2018-04-01T05:14:16.277Z,80.98
2018-04-01T05:16:43.294Z,79.58
2018-04-01T05:19:10.773Z,80.33
2018-04-01T05:21:37.945Z,80.70
2018-04-01T05:24:04.992Z,80.67
2018-04-01T05:26:32.098Z,80.65
2018-04-01T05:28:59.166Z,80.69
2018-04-01T05:31:26.911Z,79.90
2018-04-01T05:33:54.057Z,79.09
2018-04-01T05:36:21.124Z,79.20
2018-04-01T05:41:38.160Z,79.17
2018-04-01T05:44:05.316Z,79.57
2018-04-01T05:52:13.853Z,78.99
2018-04-01T05:54:41.956Z,78.81
2018-04-01T05:57:09.203Z,79.36
2018-04-01T06:02:42.658Z,78.70
2018-04-01T06:05:10.434Z,79.48
2018-04-01T06:07:40.401Z,78.80
2018-04-01T06:10:08.676Z,79.05
2018-04-01T06:12:36.347Z,78.98
2018-04-01T06:15:04.797Z,78.09
2018-04-01T06:17:32.799Z,77.89
2018-04-01T06:20:00.377Z,78.37
2018-04-01T06:22:30.367Z,78.51
2018-04-01T06:25:00.665Z,78.02
2018-04-01T06:27:27.867Z,77.42
2018-04-01T06:29:56.336Z,76.94
2018-04-01T06:32:23.577Z,77.58
2018-04-01T06:34:50.686Z,77.00
2018-04-01T06:37:18.237Z,76.97
2018-04-01T06:39:45.445Z,76.69
2018-04-01T06:42:12.492Z,76.47
2018-04-01T06:44:39.634Z,76.27
2018-04-01T06:47:06.722Z,76.34
2018-04-01T06:49:33.887Z,75.89
2018-04-01T06:52:02.121Z,76.13
2018-04-01T06:54:37.234Z,76.07
2018-04-01T06:57:04.622Z,75.58
2018-04-01T06:59:31.652Z,75.41
2018-04-01T07:01:58.683Z,76.60
2018-04-01T07:04:27.939Z,75.25
2018-04-01T07:06:55.999Z,75.59
2018-04-01T07:09:25.287Z,75.14
2018-04-01T07:11:53.043Z,74.25
2018-04-01T07:14:20.123Z,74.19
2018-04-01T07:16:47.203Z,73.59
2018-04-01T07:19:14.521Z,73.99
2018-04-01T07:21:41.723Z,73.98
2018-04-01T07:24:08.848Z,72.79
2018-04-01T07:26:35.901Z,72.45
2018-04-01T07:29:02.942Z,72.74
2018-04-01T07:31:30.418Z,72.29
2018-04-01T07:33:57.461Z,71.80
2018-04-01T07:36:25.864Z,70.96
2018-04-01T07:38:52.875Z,71.71
2018-04-01T07:41:20.294Z,72.13
2018-04-01T07:43:47.362Z,70.74
2018-04-01T07:46:14.489Z,72.75
2018-04-01T07:48:41.585Z,71.38
2018-04-01T07:51:10.841Z,70.17
2018-04-01T07:53:38.065Z,70.73
2018-04-01T07:56:05.119Z,70.72
2018-04-01T07:58:32.198Z,70.71
2018-04-01T08:00:59.240Z,69.56
2018-04-01T08:03:26.288Z,69.91
2018-04-01T08:05:53.340Z,69.06
2018-04-01T08:08:20.422Z,69.23
2018-04-01T08:10:47.546Z,69.31
2018-04-01T08:13:14.743Z,69.75
2018-04-01T08:15:42.784Z,69.27
2018-04-01T08:18:09.876Z,70.06
2018-04-01T08:20:39.746Z,68.69
2018-04-01T08:23:06.935Z,68.59
2018-04-01T08:25:34.674Z,69.74
2018-04-01T08:28:01.802Z,67.49
2018-04-01T08:30:29.583Z,67.89
2018-04-01T08:32:57.506Z,68.78
2018-04-01T08:35:24.848Z,67.22
2018-04-01T08:37:51.946Z,67.99
2018-04-01T08:40:19.038Z,67.12
2018-04-01T08:42:46.555Z,68.39
2018-04-01T08:45:14.095Z,68.07
2018-04-01T08:47:41.286Z,67.13
2018-04-01T08:50:14.876Z,67.87
2018-04-01T08:52:46.277Z,66.97
2018-04-01T08:55:18.149Z,67.73
2018-04-01T09:00:26.978Z,67.44
2018-04-01T09:02:57.105Z,69.49
2018-04-01T09:05:32.736Z,67.79
2018-04-01T09:08:04.628Z,67.91
2018-04-01T09:10:40.372Z,67.63
2018-04-01T09:13:07.611Z,69.55
2018-04-01T09:15:40.196Z,67.22
2018-04-01T09:18:07.318Z,68.43
2018-04-01T09:20:34.723Z,66.78
2018-04-01T09:23:01.782Z,67.52
2018-04-01T09:25:28.916Z,66.43
2018-04-01T09:27:55.973Z,64.95
2018-04-01T09:30:22.979Z,66.37
2018-04-01T09:32:50.102Z,64.16
2018-04-01T09:35:18.288Z,65.78
2018-04-01T09:37:48.273Z,65.82
2018-04-01T09:40:22.301Z,66.27
2018-04-01T09:42:56.702Z,65.20
2018-04-01T09:45:30.505Z,62.43
2018-04-01T09:48:00.111Z,62.56
2018-04-01T09:50:27.274Z,64.19
2018-04-01T09:52:54.328Z,63.39
2018-04-01T09:55:21.398Z,64.89
2018-04-01T09:57:48.461Z,66.98
2018-04-01T10:00:21.204Z,66.13
2018-04-01T10:02:54.745Z,68.06
2018-04-01T10:05:22.364Z,66.38
2018-04-01T10:07:50.767Z,64.11
2018-04-01T10:10:18.460Z,64.40
2018-04-01T10:12:51.686Z,63.34
2018-04-01T10:15:19.354Z,65.04
2018-04-01T10:17:48.764Z,65.96
2018-04-01T10:20:19.559Z,65.27
2018-04-01T10:22:47.644Z,62.68
2018-04-01T10:25:15.839Z,64.16
2018-04-01T10:27:43.507Z,64.60
2018-04-01T10:30:11.510Z,64.71
2018-04-01T10:32:40.170Z,65.91
2018-04-01T10:35:07.911Z,65.10
2018-04-01T10:37:37.515Z,65.93
2018-04-01T10:40:05.957Z,65.57
2018-04-01T10:42:35.988Z,63.94
2018-04-01T10:45:07.241Z,63.67
2018-04-01T10:47:36.626Z,62.27
2018-04-01T10:50:12.027Z,61.35
2018-04-01T10:52:40.630Z,61.48
2018-04-01T10:55:17.708Z,61.67
2018-04-01T10:57:47.981Z,61.28
2018-04-01T11:00:19.131Z,60.50
2018-04-01T11:02:46.689Z,61.85
2018-04-01T11:05:13.896Z,60.07
2018-04-01T11:07:41.306Z,62.40
2018-04-01T11:10:08.325Z,61.40
2018-04-01T11:12:35.441Z,59.38
2018-04-01T11:15:02.549Z,61.54
2018-04-01T11:17:30.549Z,60.96
2018-04-01T11:19:58.680Z,61.01
2018-04-01T11:22:25.939Z,61.09
2018-04-01T11:24:53.492Z,59.44
2018-04-01T11:27:20.617Z,60.05
2018-04-01T11:29:47.890Z,59.63
2018-04-01T11:32:15.218Z,58.81
2018-04-01T11:34:42.571Z,58.87
2018-04-01T11:37:09.834Z,59.69
2018-04-01T11:39:36.985Z,59.05
2018-04-01T11:42:04.274Z,57.06
2018-04-01T11:44:31.431Z,56.06
2018-04-01T11:46:58.445Z,56.42
2018-04-01T11:49:26.765Z,53.98
2018-04-01T11:51:53.860Z,55.78
2018-04-01T11:54:21.015Z,54.82
2018-04-01T11:56:48.087Z,55.53
2018-04-01T11:59:15.191Z,57.16
2018-04-01T12:01:42.225Z,55.53
2018-04-01T12:04:09.513Z,56.55
2018-04-01T12:06:36.541Z,54.25
2018-04-01T12:09:03.998Z,54.53
2018-04-01T12:11:32.424Z,55.86
2018-04-01T12:13:59.473Z,55.92
2018-04-01T12:16:27.360Z,56.88
2018-04-01T12:18:56.421Z,55.82
2018-04-01T12:21:24.712Z,56.27
2018-04-01T12:23:52.553Z,56.22
2018-04-01T12:26:19.600Z,57.05
2018-04-01T12:28:46.862Z,56.97
2018-04-01T12:31:13.951Z,57.80
2018-04-01T12:33:40.988Z,57.21
2018-04-01T12:36:11.902Z,58.25
2018-04-01T12:44:20.152Z,58.08
2018-04-01T12:46:48.333Z,59.04
2018-04-01T12:49:15.468Z,60.04
2018-04-01T12:51:42.739Z,58.98
2018-04-01T12:54:11.841Z,56.35
2018-04-01T12:56:39.357Z,55.83
2018-04-01T12:59:06.395Z,55.07
2018-04-01T13:01:35.091Z,51.65
2018-04-01T13:04:02.243Z,52.96
2018-04-01T13:06:29.512Z,53.17
2018-04-01T13:08:56.743Z,55.45
2018-04-01T13:11:24.773Z,55.02
2018-04-01T13:13:52.943Z,55.69
2018-04-01T13:16:20.102Z,51.99
2018-04-01T13:18:50.435Z,52.62
2018-04-01T13:21:17.526Z,55.82
2018-04-01T13:23:44.618Z,55.75
2018-04-01T13:26:12.152Z,59.25
2018-04-01T13:28:39.286Z,60.86
2018-04-01T13:31:06.578Z,62.13
2018-04-01T13:33:33.712Z,64.23
2018-04-01T13:36:00.899Z,67.77
2018-04-01T13:38:29.381Z,71.34
2018-04-01T13:40:56.824Z,74.01
2018-04-01T13:43:23.845Z,75.38
2018-04-01T13:45:51.019Z,71.27
2018-04-01T13:48:18.108Z,70.47
2018-04-01T13:50:45.183Z,71.75
2018-04-01T13:53:12.212Z,71.78
2018-04-01T13:55:39.250Z,72.90
2018-04-01T13:58:07.125Z,72.84
2018-04-01T14:00:34.142Z,74.03
2018-04-01T14:03:01.940Z,72.80
2018-04-01T14:05:28.962Z,72.77
2018-04-01T14:07:58.286Z,73.84
2018-04-01T14:10:26.109Z,78.60
2018-04-01T14:12:54.108Z,80.79
2018-04-01T14:15:25.596Z,82.28
2018-04-01T14:17:53.001Z,83.79
2018-04-01T14:20:20.772Z,85.49
2018-04-01T14:22:50.838Z,85.86
2018-04-01T14:25:18.966Z,87.17
2018-04-01T14:27:46.097Z,87.31
2018-04-01T14:30:13.138Z,88.44
2018-04-01T14:32:43.663Z,87.91
2018-04-01T14:35:10.755Z,89.58
2018-04-01T14:37:37.866Z,84.83
2018-04-01T14:40:06.097Z,80.93
2018-04-01T14:42:33.233Z,77.82
2018-04-01T14:45:01.150Z,77.25
2018-04-01T14:47:29.334Z,79.43
2018-04-01T14:49:56.937Z,77.58
2018-04-01T14:52:23.974Z,80.12
2018-04-01T14:54:51.053Z,78.70
2018-04-01T14:57:18.093Z,80.80
2018-04-01T14:59:47.900Z,80.50
2018-04-01T15:02:15.030Z,79.14
2018-04-01T15:04:42.102Z,81.32
2018-04-01T15:07:10.446Z,78.44
2018-04-01T15:09:37.527Z,78.76
2018-04-01T15:12:04.589Z,77.37
2018-04-01T15:14:31.617Z,73.40
2018-04-01T15:16:58.653Z,73.02
2018-04-01T15:19:25.802Z,69.54
2018-04-01T15:21:52.823Z,68.08
2018-04-01T15:24:20.059Z,67.15
2018-04-01T15:26:47.210Z,66.51
2018-04-01T15:29:14.497Z,69.27
2018-04-01T15:31:41.591Z,70.46
2018-04-01T15:34:08.662Z,71.15
2018-04-01T15:36:35.941Z,71.54
2018-04-01T15:39:03.068Z,67.69
2018-04-01T15:41:30.236Z,68.49
2018-04-01T15:43:58.232Z,69.40
2018-04-01T15:46:25.268Z,68.47
2018-04-01T15:48:52.319Z,69.66
2018-04-01T15:51:19.323Z,66.20
2018-04-01T15:53:46.390Z,68.58
2018-04-01T15:56:13.738Z,70.81
2018-04-01T15:58:41.089Z,69.96
2018-04-01T16:01:08.101Z,70.94
2018-04-01T16:03:38.816Z,70.49
2018-04-01T16:06:06.264Z,70.51
2018-04-01T16:08:34.833Z,70.98
2018-04-01T16:11:02.055Z,75.67
2018-04-01T16:13:29.332Z,78.72
2018-04-01T16:15:56.445Z,78.91
2018-04-01T16:18:23.490Z,81.51
2018-04-01T16:20:50.523Z,83.19
2018-04-01T16:23:17.552Z,82.56
2018-04-01T16:25:44.612Z,83.15
2018-04-01T16:28:11.749Z,84.48
2018-04-01T16:30:38.989Z,85.54
2018-04-01T16:33:06.032Z,86.03
2018-04-01T16:35:33.437Z,84.40
2018-04-01T16:38:00.811Z,85.82
2018-04-01T16:40:28.263Z,85.20
2018-04-01T16:42:55.294Z,85.52
2018-04-01T16:45:22.510Z,82.42
2018-04-01T16:47:49.531Z,81.38
2018-04-01T16:50:16.578Z,81.27
2018-04-01T16:52:43.654Z,78.77
2018-04-01T16:55:10.683Z,78.05
2018-04-01T16:57:37.796Z,78.63
2018-04-01T17:00:04.822Z,78.43
2018-04-01T17:02:31.832Z,77.90
2018-04-01T17:04:58.857Z,77.48
2018-04-01T17:07:25.903Z,77.44
2018-04-01T17:09:52.979Z,77.44
2018-04-01T17:12:20.891Z,77.46
2018-04-01T17:14:47.986Z,77.33
2018-04-01T17:17:15.955Z,78.05
2018-04-01T17:19:43.167Z,78.23
2018-04-01T17:22:10.210Z,80.06
2018-04-01T17:24:37.242Z,80.92
2018-04-01T17:27:04.522Z,82.21
2018-04-01T17:29:31.577Z,83.74
2018-04-01T17:31:58.593Z,85.25
2018-04-01T17:34:25.663Z,85.38
2018-04-01T17:36:52.780Z,85.54
2018-04-01T17:39:19.858Z,86.59
2018-04-01T17:41:46.941Z,83.96
2018-04-01T17:44:14.059Z,84.06
2018-04-01T17:46:41.109Z,83.81
2018-04-01T17:49:08.177Z,83.34
2018-04-01T17:51:35.290Z,79.59
2018-04-01T17:54:02.342Z,79.83
2018-04-01T17:56:29.432Z,78.73
2018-04-01T17:58:56.509Z,78.93
2018-04-01T18:01:23.578Z,80.28
2018-04-01T18:03:54.094Z,80.13
2018-04-01T18:06:23.543Z,80.19
2018-04-01T18:08:50.813Z,80.78
2018-04-01T18:11:18.570Z,80.49
2018-04-01T18:13:46.714Z,81.02
2018-04-01T18:16:14.676Z,81.92
2018-04-01T18:18:43.176Z,81.84
2018-04-01T18:21:11.375Z,81.73
2018-04-01T18:23:39.419Z,81.69
2018-04-01T18:26:07.823Z,82.96
2018-04-01T18:28:36.067Z,83.88
2018-04-01T18:31:04.279Z,84.97
2018-04-01T18:33:32.634Z,85.41
2018-04-01T18:36:01.008Z,85.05
2018-04-01T18:38:29.524Z,84.24
2018-04-01T18:40:58.305Z,84.65
2018-04-01T18:43:26.498Z,84.84
2018-04-01T18:45:55.158Z,85.00
2018-04-01T18:48:23.705Z,84.90
2018-04-01T18:50:51.577Z,85.31
2018-04-01T18:53:19.585Z,86.43
2018-04-01T18:55:47.387Z,87.50
2018-04-01T18:58:15.280Z,87.98
2018-04-01T19:00:43.007Z,88.76
2018-04-01T19:03:12.444Z,89.60
2018-04-01T19:05:41.069Z,90.26
2018-04-01T19:08:09.627Z,90.47
2018-04-01T19:10:37.780Z,90.72
2018-04-01T19:13:06.147Z,90.93
2018-04-01T19:15:34.262Z,91.20
2018-04-01T19:18:03.564Z,91.34
2018-04-01T19:20:31.956Z,91.03
2018-04-01T19:23:00.202Z,91.63
2018-04-01T19:25:29.176Z,91.43
2018-04-01T19:27:57.645Z,91.32
2018-04-01T19:30:26.234Z,90.76
2018-04-01T19:32:54.872Z,90.79
2018-04-01T19:35:23.458Z,91.21
2018-04-01T19:37:52.198Z,90.07
2018-04-01T19:40:20.647Z,89.32
2018-04-01T19:42:49.454Z,88.91
2018-04-01T19:45:18.910Z,89.21
2018-04-01T19:47:47.900Z,88.47
2018-04-01T19:50:16.345Z,88.98
2018-04-01T19:52:43.911Z,88.31
2018-04-01T19:55:15.517Z,87.58
2018-04-01T19:57:45.036Z,86.94
2018-04-01T20:00:15.014Z,87.12
2018-04-01T20:02:44.297Z,86.37
2018-04-01T20:05:13.446Z,85.42
2018-04-01T20:07:42.584Z,84.32
2018-04-01T20:10:11.406Z,84.49
2018-04-01T20:12:39.987Z,83.82
2018-04-01T20:15:08.997Z,83.99
2018-04-01T20:17:37.466Z,84.02
2018-04-01T20:20:06.137Z,84.21
2018-04-01T20:22:33.753Z,83.27
2018-04-01T20:25:01.361Z,83.89
2018-04-01T20:27:28.968Z,83.23
2018-04-01T20:29:56.571Z,83.94
2018-04-01T20:32:24.140Z,84.38
2018-04-01T20:34:51.775Z,84.08
2018-04-01T20:37:19.327Z,84.91
2018-04-01T20:39:46.898Z,84.66
2018-04-01T20:42:14.508Z,84.43
2018-04-01T20:44:42.194Z,84.85
2018-04-01T20:47:09.803Z,85.64
2018-04-01T20:49:37.417Z,84.90
2018-04-01T20:52:05.003Z,85.83
2018-04-01T20:54:32.571Z,86.61
2018-04-01T20:57:00.153Z,86.25
2018-04-01T20:59:28.151Z,86.86
2018-04-01T21:01:56.543Z,87.54
2018-04-01T21:07:14.587Z,88.21
2018-04-01T21:09:42.154Z,88.98
2018-04-01T21:12:09.702Z,89.54
2018-04-01T21:14:37.295Z,89.08
2018-04-01T21:17:04.973Z,89.59
2018-04-01T21:19:32.658Z,89.03
2018-04-01T21:22:00.580Z,89.41
2018-04-01T21:24:28.213Z,89.76
2018-04-01T21:26:55.827Z,89.64
2018-04-01T21:29:23.478Z,89.01
2018-04-01T21:31:51.129Z,87.88
2018-04-01T21:34:18.739Z,88.19
2018-04-01T21:36:46.330Z,87.87
2018-04-01T21:39:14.133Z,87.55
2018-04-01T21:41:41.710Z,87.38
2018-04-01T21:44:09.276Z,86.80
2018-04-01T21:46:37.117Z,86.39
2018-04-01T21:49:04.800Z,86.88
2018-04-01T21:51:32.413Z,87.06
2018-04-01T21:54:00.023Z,87.57
2018-04-01T21:56:27.733Z,88.52
2018-04-01T21:58:55.414Z,89.45
2018-04-01T22:01:22.988Z,89.71
2018-04-01T22:03:50.526Z,89.59
2018-04-01T22:06:18.072Z,89.77
2018-04-01T22:08:45.604Z,88.74
2018-04-01T22:11:13.257Z,87.80
2018-04-01T22:13:40.910Z,86.32
2018-04-01T22:16:08.827Z,86.64
2018-04-01T22:18:36.378Z,86.26
2018-04-01T22:21:09.943Z,85.20
2018-04-01T22:23:37.768Z,84.45
2018-04-01T22:26:05.365Z,83.79
2018-04-01T22:28:33.262Z,82.70
2018-04-01T22:31:00.855Z,82.53
2018-04-01T22:33:30.334Z,83.20
2018-04-01T22:35:57.822Z,83.01
2018-04-01T22:38:28.846Z,83.93
2018-04-01T22:40:56.379Z,84.30
2018-04-01T22:43:26.511Z,84.50
2018-04-01T22:45:54.151Z,84.67
2018-04-01T22:48:21.699Z,84.78
2018-04-01T22:50:49.439Z,84.66
2018-04-01T22:53:17.225Z,84.68
2018-04-01T22:55:45.669Z,84.65
2018-04-01T22:58:13.324Z,84.16
2018-04-01T23:00:40.895Z,83.52
2018-04-01T23:03:08.740Z,83.49
2018-04-01T23:05:36.765Z,83.61
2018-04-01T23:08:04.401Z,83.44
2018-04-01T23:10:31.965Z,83.38
2018-04-01T23:12:59.564Z,81.73
2018-04-01T23:15:27.756Z,81.43
2018-04-01T23:17:55.416Z,81.81
2018-04-01T23:20:23.021Z,80.88
2018-04-01T23:22:50.591Z,81.59
2018-04-01T23:25:19.249Z,81.78
2018-04-01T23:27:46.813Z,81.32
2018-04-01T23:30:14.448Z,80.87
2018-04-01T23:32:42.119Z,81.75
2018-04-01T23:35:10.556Z,81.78
2018-04-01T23:37:38.243Z,81.62
2018-04-01T23:40:05.799Z,81.09
2018-04-01T23:42:33.296Z,80.60
2018-04-01T23:45:00.782Z,80.57
2018-04-01T23:47:28.464Z,81.07
2018-04-01T23:49:56.046Z,81.12
2018-04-01T23:52:23.620Z,81.51
2018-04-01T23:54:51.213Z,81.81
2018-04-01T23:57:19.135Z,82.27
2018-04-01T23:59:46.738Z,82.49
